Time;durP1;ratioP1;P1;durP2;ratioP2;P2;SDS_P1;SDS_P2;PMS_P1;PMS_P2;Temp;Humidity;BMP_temperature;BMP_pressure;BME280_temperature;BME280_humidity;BME280_pressure;Samples;Min_cycle;Max_cycle;Signal;HPM_P1;HPM_P2
2024/03/27 00:01:41;;;;;;;7.80;7.00;;;11.20;99.90;;;;;;4948822;28;20635;-68
2024/03/27 00:04:09;;;;;;;7.37;6.70;;;11.10;99.90;;;;;;4954861;28;20181;-68
2024/03/27 00:06:35;;;;;;;8.23;7.20;;;11.10;99.90;;;;;;4939542;28;20713;-68
2024/03/27 00:09:00;;;;;;;10.73;9.10;;;11.10;99.90;;;;;;4951939;28;20424;-68
2024/03/27 00:11:27;;;;;;;8.00;6.70;;;11.10;99.90;;;;;;4953934;28;20462;-68
2024/03/27 00:13:53;;;;;;;7.93;6.43;;;11.20;99.90;;;;;;4954522;28;20169;-68
2024/03/27 00:16:18;;;;;;;10.17;7.13;;;11.20;99.90;;;;;;4948884;28;20443;-68
2024/03/27 00:18:44;;;;;;;13.63;6.93;;;11.20;99.90;;;;;;4941546;28;20384;-67
2024/03/27 00:21:10;;;;;;;8.53;7.63;;;11.20;99.90;;;;;;4948812;29;20549;-66
2024/03/27 00:23:36;;;;;;;8.67;7.90;;;11.20;99.90;;;;;;4945211;28;20522;-68
2024/03/27 00:26:02;;;;;;;8.60;6.53;;;11.20;99.90;;;;;;4954649;28;20456;-66
2024/03/27 00:28:28;;;;;;;8.97;7.30;;;11.20;99.90;;;;;;4951294;28;20728;-67
2024/03/27 00:30:53;;;;;;;11.03;7.20;;;11.30;99.90;;;;;;4951110;28;20208;-67
2024/03/27 00:33:19;;;;;;;7.37;6.67;;;11.30;99.90;;;;;;4953128;28;20316;-67
2024/03/27 00:35:57;;;;;;;7.20;6.30;;;11.20;99.90;;;;;;4953110;28;20201;-67
2024/03/27 00:38:24;;;;;;;10.57;7.97;;;11.30;99.90;;;;;;4946272;28;20639;-66
2024/03/27 00:40:50;;;;;;;20.00;7.77;;;11.20;99.90;;;;;;4944334;28;20799;-67
2024/03/27 00:43:16;;;;;;;6.97;6.13;;;11.20;99.90;;;;;;4949972;28;20456;-67
2024/03/27 00:45:43;;;;;;;7.30;6.60;;;11.10;99.90;;;;;;4953836;28;20888;-67
2024/03/27 00:48:09;;;;;;;7.70;6.70;;;11.10;99.90;;;;;;4949934;28;20803;-67
2024/03/27 00:50:35;;;;;;;7.40;6.70;;;11.10;99.90;;;;;;4945763;29;20424;-67
2024/03/27 00:53:02;;;;;;;7.43;6.20;;;11.10;99.90;;;;;;4953702;28;20429;-66
2024/03/27 00:55:27;;;;;;;6.97;6.27;;;11.10;99.90;;;;;;4953356;28;20495;-67
2024/03/27 00:57:55;;;;;;;8.33;7.27;;;11.10;99.90;;;;;;4952003;28;20432;-67
2024/03/27 01:00:20;;;;;;;6.80;6.20;;;11.10;99.90;;;;;;4953406;28;20593;-67
2024/03/27 01:02:47;;;;;;;7.10;6.40;;;11.00;99.90;;;;;;4945469;28;20432;-68
2024/03/27 01:05:13;;;;;;;8.23;7.40;;;11.00;99.90;;;;;;4953776;28;20204;-67
2024/03/27 01:07:45;;;;;;;8.80;6.80;;;10.90;99.90;;;;;;4952629;28;20913;-67
2024/03/27 01:10:11;;;;;;;7.93;6.40;;;10.80;99.90;;;;;;4944904;29;20425;-67
2024/03/27 01:12:40;;;;;;;7.27;6.67;;;10.80;99.90;;;;;;4953929;28;20471;-67
2024/03/27 01:15:07;;;;;;;6.33;5.80;;;10.80;99.90;;;;;;4953471;29;20456;-67
2024/03/27 01:17:33;;;;;;;11.30;6.80;;;10.70;99.90;;;;;;4936575;29;20413;-68
2024/03/27 01:19:59;;;;;;;7.13;6.30;;;10.80;99.90;;;;;;4951993;28;20420;-68
2024/03/27 01:22:25;;;;;;;6.57;5.97;;;10.70;99.90;;;;;;4950895;28;20527;-67
2024/03/27 01:24:51;;;;;;;6.70;6.07;;;10.70;99.90;;;;;;4953512;28;20502;-67
2024/03/27 01:27:16;;;;;;;6.97;6.27;;;10.60;99.90;;;;;;4944947;28;20181;-67
2024/03/27 01:29:42;;;;;;;10.63;5.70;;;10.60;99.90;;;;;;4945723;29;20181;-67
2024/03/27 01:32:08;;;;;;;7.87;6.60;;;10.50;99.90;;;;;;4950776;29;20209;-67
2024/03/27 01:34:33;;;;;;;7.70;6.37;;;10.50;99.90;;;;;;4952802;28;20183;-67
2024/03/27 01:36:59;;;;;;;7.27;6.63;;;10.40;99.90;;;;;;4942098;28;20225;-67
2024/03/27 01:39:25;;;;;;;8.50;6.53;;;10.40;99.90;;;;;;4945758;29;20181;-68
2024/03/27 01:41:51;;;;;;;8.40;5.87;;;10.40;99.90;;;;;;4951075;29;20722;-67
2024/03/27 01:44:18;;;;;;;7.37;6.50;;;10.30;99.90;;;;;;4953513;28;20520;-67
2024/03/27 01:46:48;;;;;;;9.07;6.20;;;10.30;99.90;;;;;;4952458;28;20226;-67
2024/03/27 01:49:17;;;;;;;6.80;6.20;;;10.20;99.90;;;;;;4949372;28;20433;-67
2024/03/27 01:51:44;;;;;;;6.93;6.33;;;10.10;99.90;;;;;;4948803;29;20464;-67
2024/03/27 01:54:12;;;;;;;9.50;6.27;;;10.00;99.90;;;;;;4947305;28;22262;-67
2024/03/27 01:56:38;;;;;;;6.50;5.80;;;9.90;99.90;;;;;;4952635;28;20452;-68
2024/03/27 01:59:05;;;;;;;7.60;6.70;;;9.80;99.90;;;;;;4956251;28;20434;-67
2024/03/27 02:01:32;;;;;;;6.93;6.27;;;9.80;99.90;;;;;;4949477;28;20597;-67
2024/03/27 02:03:58;;;;;;;6.80;5.83;;;9.80;99.90;;;;;;4953623;28;20511;-67
2024/03/27 02:06:24;;;;;;;6.73;5.93;;;9.70;99.90;;;;;;4955586;29;20456;-68
2024/03/27 02:08:49;;;;;;;6.60;5.90;;;9.70;99.90;;;;;;4951289;29;20803;-67
2024/03/27 02:11:16;;;;;;;11.10;6.57;;;9.70;99.90;;;;;;4949173;28;20631;-68
2024/03/27 02:13:44;;;;;;;7.60;6.03;;;9.60;99.90;;;;;;4955719;28;20181;-67
2024/03/27 02:16:09;;;;;;;7.20;6.23;;;9.50;99.90;;;;;;4954460;28;20455;-67
2024/03/27 02:18:35;;;;;;;6.37;5.80;;;9.50;99.90;;;;;;4949245;29;20432;-67
2024/03/27 02:21:01;;;;;;;6.90;6.33;;;9.40;99.90;;;;;;4946034;28;20173;-67
2024/03/27 02:23:33;;;;;;;8.57;7.67;;;9.40;99.90;;;;;;4956177;28;20181;-66
2024/03/27 02:26:07;;;;;;;7.73;6.77;;;9.40;99.90;;;;;;4955291;28;20456;-67
2024/03/27 02:28:32;;;;;;;13.07;7.30;;;9.40;99.90;;;;;;4955681;28;21097;-67
2024/03/27 02:30:58;;;;;;;8.20;7.50;;;9.40;99.90;;;;;;4943754;29;20460;-67
2024/03/27 02:33:23;;;;;;;9.50;7.77;;;9.40;99.90;;;;;;4952029;28;20177;-67
2024/03/27 02:35:50;;;;;;;8.63;7.47;;;9.40;99.90;;;;;;4940189;28;20281;-67
2024/03/27 02:38:15;;;;;;;7.07;6.30;;;9.40;99.90;;;;;;4955684;28;20185;-67
2024/03/27 02:40:41;;;;;;;8.83;7.67;;;9.30;99.90;;;;;;4952347;28;20432;-67
2024/03/27 02:43:06;;;;;;;8.10;6.73;;;9.30;99.90;;;;;;4956643;28;20173;-67
2024/03/27 02:45:31;;;;;;;9.00;6.23;;;9.20;99.90;;;;;;4938395;28;20622;-67
2024/03/27 02:47:57;;;;;;;7.77;6.57;;;9.20;99.90;;;;;;4950262;28;20188;-66
2024/03/27 02:50:24;;;;;;;9.87;7.60;;;9.20;99.90;;;;;;4951613;28;20223;-67
2024/03/27 02:52:51;;;;;;;8.10;6.27;;;9.20;99.90;;;;;;4945640;28;20277;-67
2024/03/27 02:55:16;;;;;;;6.63;5.90;;;9.10;99.90;;;;;;4951511;28;20935;-66
2024/03/27 02:57:42;;;;;;;7.17;6.47;;;9.10;99.90;;;;;;4955203;29;20483;-67
2024/03/27 03:00:10;;;;;;;6.17;5.57;;;9.10;99.90;;;;;;4955540;28;20181;-67
2024/03/27 03:02:36;;;;;;;6.57;6.00;;;9.10;99.90;;;;;;4954797;28;20663;-66
2024/03/27 03:05:02;;;;;;;8.13;6.23;;;9.00;99.90;;;;;;4955365;28;20503;-67
2024/03/27 03:07:28;;;;;;;8.30;6.53;;;9.00;99.90;;;;;;4940475;28;20461;-67
2024/03/27 03:09:53;;;;;;;7.37;6.57;;;8.90;99.90;;;;;;4948228;29;20460;-67
2024/03/27 03:12:19;;;;;;;8.03;5.33;;;8.80;99.90;;;;;;4942285;28;20574;-67
2024/03/27 03:14:44;;;;;;;6.83;6.00;;;8.70;99.90;;;;;;4952511;28;20205;-68
2024/03/27 03:17:10;;;;;;;8.17;6.40;;;8.60;99.90;;;;;;4954948;28;20189;-67
2024/03/27 03:19:36;;;;;;;13.70;6.57;;;8.60;99.90;;;;;;4945308;28;20240;-67
2024/03/27 03:22:04;;;;;;;9.70;6.20;;;8.50;99.90;;;;;;4949194;28;20587;-67
2024/03/27 03:24:29;;;;;;;7.50;6.90;;;8.50;99.90;;;;;;4946731;28;20519;-67
2024/03/27 03:26:55;;;;;;;9.23;6.60;;;8.50;99.90;;;;;;4951715;28;20919;-67
2024/03/27 03:29:21;;;;;;;8.27;6.40;;;8.50;99.90;;;;;;4955304;28;20197;-67
2024/03/27 03:31:46;;;;;;;7.97;7.17;;;8.40;99.90;;;;;;4953154;28;20563;-69
2024/03/27 03:34:12;;;;;;;10.83;6.73;;;8.40;99.90;;;;;;4951008;29;20289;-66
2024/03/27 03:36:38;;;;;;;6.20;5.60;;;8.40;99.90;;;;;;4948623;28;20204;-66
2024/03/27 03:39:04;;;;;;;7.17;5.77;;;8.20;99.90;;;;;;4952160;28;20436;-66
2024/03/27 03:41:29;;;;;;;7.27;6.27;;;8.20;99.90;;;;;;4947392;28;20209;-66
2024/03/27 03:43:55;;;;;;;7.63;6.83;;;8.10;99.90;;;;;;4951437;29;20914;-68
2024/03/27 03:46:20;;;;;;;10.50;6.80;;;8.10;99.90;;;;;;4950716;28;20206;-68
2024/03/27 03:48:46;;;;;;;7.80;6.27;;;8.10;99.90;;;;;;4939301;29;20182;-69
2024/03/27 03:51:11;;;;;;;8.43;6.40;;;8.10;99.90;;;;;;4948274;29;20614;-68
2024/03/27 03:53:37;;;;;;;7.00;6.30;;;8.20;99.90;;;;;;4946793;28;20181;-68
2024/03/27 03:56:02;;;;;;;7.83;6.07;;;8.20;99.90;;;;;;4953264;28;20223;-67
2024/03/27 03:58:28;;;;;;;6.37;5.77;;;8.10;99.90;;;;;;4954555;28;20176;-67
2024/03/27 04:00:54;;;;;;;6.93;6.33;;;8.00;99.90;;;;;;4952041;28;20192;-68
2024/03/27 04:03:20;;;;;;;7.23;6.53;;;7.90;99.90;;;;;;4949123;28;20174;-68
2024/03/27 04:05:46;;;;;;;7.80;7.00;;;8.00;99.90;;;;;;4946517;29;20503;-68
2024/03/27 04:08:11;;;;;;;7.47;6.70;;;8.00;99.90;;;;;;4952930;28;20852;-68
2024/03/27 04:10:41;;;;;;;12.33;6.73;;;8.10;99.90;;;;;;4953846;28;20192;-68
2024/03/27 04:13:08;;;;;;;7.37;6.63;;;8.10;99.90;;;;;;4953140;28;20205;-67
2024/03/27 04:15:41;;;;;;;8.50;6.17;;;8.20;99.90;;;;;;4948197;28;20532;-68
2024/03/27 04:18:06;;;;;;;11.60;5.93;;;8.10;99.90;;;;;;4952563;28;20420;-68
2024/03/27 04:20:32;;;;;;;7.53;6.70;;;8.10;99.90;;;;;;4953320;28;20436;-68
2024/03/27 04:22:57;;;;;;;8.53;5.87;;;8.00;99.90;;;;;;4953510;28;20184;-68
2024/03/27 04:25:23;;;;;;;7.40;6.07;;;8.00;99.90;;;;;;4944623;28;20235;-68
2024/03/27 04:27:50;;;;;;;7.60;6.80;;;8.00;99.90;;;;;;4952834;28;20536;-68
2024/03/27 04:30:16;;;;;;;10.40;6.37;;;7.90;99.90;;;;;;4953599;28;21781;-68
2024/03/27 04:32:43;;;;;;;9.27;6.37;;;7.80;99.90;;;;;;4953795;28;20463;-68
2024/03/27 04:35:09;;;;;;;7.67;6.33;;;7.80;99.90;;;;;;4944083;28;20449;-68
2024/03/27 04:37:35;;;;;;;5.97;5.37;;;7.70;99.90;;;;;;4938615;29;21002;-68
2024/03/27 04:40:00;;;;;;;7.40;6.10;;;7.60;99.90;;;;;;4949849;28;20421;-68
2024/03/27 04:42:26;;;;;;;8.50;6.57;;;7.60;99.90;;;;;;4944636;29;20256;-68
2024/03/27 04:44:51;;;;;;;6.27;5.57;;;7.70;99.90;;;;;;4941852;29;20257;-68
2024/03/27 04:47:17;;;;;;;7.93;6.50;;;7.70;99.90;;;;;;4941256;28;20185;-68
2024/03/27 04:49:42;;;;;;;8.97;6.47;;;7.70;99.90;;;;;;4950685;29;20189;-68
2024/03/27 04:52:08;;;;;;;6.43;5.60;;;7.60;99.90;;;;;;4949671;28;20683;-68
2024/03/27 04:54:33;;;;;;;9.23;6.00;;;7.60;99.90;;;;;;4934726;29;20620;-68
2024/03/27 04:56:59;;;;;;;7.73;6.63;;;7.70;99.90;;;;;;4950198;29;20740;-68
2024/03/27 04:59:24;;;;;;;11.23;10.03;;;7.80;99.90;;;;;;4953325;28;20232;-69
2024/03/27 05:01:50;;;;;;;8.07;7.37;;;7.80;99.90;;;;;;4951922;28;20169;-68
2024/03/27 05:04:16;;;;;;;8.63;7.27;;;7.90;99.90;;;;;;4947061;28;20185;-68
2024/03/27 05:06:42;;;;;;;13.07;9.17;;;8.00;99.90;;;;;;4911647;28;1047726;-69
2024/03/27 05:09:10;;;;;;;6.53;5.30;;;8.00;99.90;;;;;;4935002;29;20264;-68
2024/03/27 05:11:39;;;;;;;8.37;7.47;;;8.00;99.90;;;;;;4934835;29;20835;-68
2024/03/27 05:14:05;;;;;;;11.00;8.57;;;8.00;99.90;;;;;;4942095;28;20512;-67
2024/03/27 05:16:31;;;;;;;9.20;7.90;;;7.90;99.90;;;;;;4948756;28;20449;-68
2024/03/27 05:18:56;;;;;;;12.10;7.73;;;7.90;99.90;;;;;;4951127;28;20437;-68
2024/03/27 05:21:23;;;;;;;10.27;7.27;;;8.00;99.90;;;;;;4934853;29;20562;-68
2024/03/27 05:23:48;;;;;;;9.67;6.93;;;8.00;99.90;;;;;;4935927;29;20177;-67
2024/03/27 05:26:14;;;;;;;10.60;6.80;;;8.10;99.90;;;;;;4948476;29;20511;-69
2024/03/27 05:28:39;;;;;;;11.43;7.00;;;8.10;99.90;;;;;;4947879;28;20193;-68
2024/03/27 05:31:05;;;;;;;7.23;6.27;;;8.00;99.90;;;;;;4946474;28;20230;-68
2024/03/27 05:33:30;;;;;;;7.73;6.13;;;7.90;99.90;;;;;;4949702;29;20247;-68
2024/03/27 05:35:56;;;;;;;11.83;6.80;;;7.80;99.90;;;;;;4943561;28;20284;-68
2024/03/27 05:38:22;;;;;;;8.40;7.40;;;7.80;99.90;;;;;;4951365;29;20181;-67
2024/03/27 05:40:47;;;;;;;10.37;6.93;;;7.80;99.90;;;;;;4953378;28;20432;-68
2024/03/27 05:43:13;;;;;;;8.30;7.30;;;7.70;99.90;;;;;;4947306;29;20200;-68
2024/03/27 05:45:38;;;;;;;8.63;6.50;;;7.70;99.90;;;;;;4952666;28;20232;-68
2024/03/27 05:48:04;;;;;;;10.43;6.97;;;7.70;99.90;;;;;;4955591;28;20593;-68
2024/03/27 05:50:30;;;;;;;6.87;6.13;;;7.80;99.90;;;;;;4944829;28;20193;-67
2024/03/27 05:52:55;;;;;;;6.77;6.07;;;7.80;99.90;;;;;;4947621;28;20244;-68
2024/03/27 05:55:21;;;;;;;18.10;7.47;;;7.90;99.90;;;;;;4949782;28;20197;-68
2024/03/27 05:57:46;;;;;;;13.03;7.33;;;7.90;99.90;;;;;;4947280;28;20185;-68
2024/03/27 06:00:13;;;;;;;9.43;6.57;;;8.00;99.90;;;;;;4951471;28;20264;-68
2024/03/27 06:02:38;;;;;;;8.33;7.50;;;8.00;99.90;;;;;;4939320;28;20185;-68
2024/03/27 06:05:04;;;;;;;8.07;7.23;;;8.10;99.90;;;;;;4981260;23;20915;-66
2024/03/27 06:07:30;;;;;;;7.43;6.73;;;8.10;99.90;;;;;;4982798;28;20688;-67
2024/03/27 06:09:56;;;;;;;10.40;6.93;;;8.20;99.90;;;;;;4993738;28;20418;-68
2024/03/27 06:12:21;;;;;;;12.60;6.13;;;8.30;99.90;;;;;;4993236;28;20672;-67
2024/03/27 06:14:47;;;;;;;11.10;7.50;;;8.30;99.90;;;;;;4989237;28;20172;-68
2024/03/27 06:17:12;;;;;;;11.73;7.03;;;8.30;99.90;;;;;;4982633;28;20176;-67
2024/03/27 06:19:38;;;;;;;10.87;7.47;;;8.30;99.90;;;;;;4983673;28;20191;-68
2024/03/27 06:22:03;;;;;;;9.10;7.83;;;8.20;99.90;;;;;;4979823;28;20191;-68
2024/03/27 06:24:29;;;;;;;8.10;7.17;;;8.20;99.90;;;;;;4989656;28;20175;-68
2024/03/27 06:26:54;;;;;;;9.73;7.50;;;8.30;99.90;;;;;;4980915;28;20566;-67
2024/03/27 06:29:20;;;;;;;8.87;6.37;;;8.40;99.90;;;;;;4986258;28;20172;-67
2024/03/27 06:31:45;;;;;;;7.40;6.80;;;8.50;99.90;;;;;;4978336;28;20220;-67
2024/03/27 06:34:12;;;;;;;9.10;7.53;;;8.70;99.90;;;;;;4972117;28;20656;-67
2024/03/27 06:36:37;;;;;;;11.07;7.00;;;8.80;99.90;;;;;;4981838;28;20228;-67
2024/03/27 06:39:03;;;;;;;12.50;7.90;;;8.80;99.90;;;;;;4989870;28;20453;-66
2024/03/27 06:41:29;;;;;;;9.00;6.57;;;8.90;99.90;;;;;;4980395;28;20203;-67
2024/03/27 06:43:54;;;;;;;12.77;7.00;;;8.90;99.90;;;;;;4984556;28;20717;-67
2024/03/27 06:46:20;;;;;;;8.80;6.80;;;9.00;99.90;;;;;;4985520;28;20690;-67
2024/03/27 06:48:56;;;;;;;10.00;8.43;;;9.10;99.90;;;;;;4974691;28;20203;-67
2024/03/27 06:51:22;;;;;;;10.40;9.37;;;9.10;99.90;;;;;;4977422;28;20206;-67
2024/03/27 06:53:48;;;;;;;11.50;8.27;;;9.10;99.90;;;;;;4984042;28;20833;-67
2024/03/27 06:56:13;;;;;;;10.87;6.63;;;9.30;99.90;;;;;;4979894;28;20451;-66
2024/03/27 06:58:39;;;;;;;15.40;8.13;;;9.30;99.90;;;;;;4976859;28;20165;-67
2024/03/27 07:01:04;;;;;;;8.27;7.37;;;9.40;99.90;;;;;;4988094;28;20239;-68
2024/03/27 07:03:30;;;;;;;10.17;7.13;;;9.50;99.90;;;;;;4978189;28;20275;-66
2024/03/27 07:05:55;;;;;;;9.20;7.97;;;9.60;99.90;;;;;;4987208;28;20302;-67
2024/03/27 07:08:21;;;;;;;9.60;8.70;;;9.70;99.90;;;;;;4977032;28;20176;-67
2024/03/27 07:10:46;;;;;;;8.40;7.30;;;9.80;99.90;;;;;;4990049;28;20182;-67
2024/03/27 07:13:12;;;;;;;10.07;8.17;;;9.90;99.90;;;;;;4987655;28;20172;-66
2024/03/27 07:15:37;;;;;;;9.60;6.67;;;10.00;99.90;;;;;;4981296;28;20188;-67
2024/03/27 07:18:03;;;;;;;9.70;7.90;;;10.00;99.90;;;;;;4968663;28;20524;-66
2024/03/27 07:20:29;;;;;;;12.67;8.30;;;10.00;99.90;;;;;;4977725;28;20186;-66
2024/03/27 07:22:55;;;;;;;11.07;7.73;;;10.10;99.90;;;;;;4967093;28;20526;-67
2024/03/27 07:25:20;;;;;;;7.97;7.27;;;10.20;99.90;;;;;;4977294;28;20399;-68
2024/03/27 07:27:46;;;;;;;9.80;7.30;;;10.30;99.90;;;;;;4984415;28;20191;-69
2024/03/27 07:30:12;;;;;;;8.70;7.53;;;10.30;99.90;;;;;;4976701;28;20188;-66
2024/03/27 07:32:37;;;;;;;11.93;7.97;;;10.50;99.90;;;;;;4980629;28;20208;-69
2024/03/27 07:35:04;;;;;;;9.53;7.60;;;10.70;99.90;;;;;;4973225;28;20653;-67
2024/03/27 07:37:30;;;;;;;8.57;7.77;;;10.90;99.90;;;;;;4982161;28;20182;-68
2024/03/27 07:39:55;;;;;;;11.17;6.93;;;11.20;99.90;;;;;;4990944;28;20867;-67
2024/03/27 07:42:21;;;;;;;10.63;7.50;;;11.50;99.90;;;;;;4973766;28;20180;-67
2024/03/27 07:44:46;;;;;;;8.50;7.80;;;11.70;99.90;;;;;;4987530;28;20271;-67
2024/03/27 07:47:12;;;;;;;8.30;7.47;;;12.00;99.90;;;;;;4973596;28;20184;-67
2024/03/27 07:49:37;;;;;;;10.90;7.90;;;12.20;99.90;;;;;;4979403;28;20175;-67
2024/03/27 07:52:03;;;;;;;8.40;7.60;;;12.40;99.90;;;;;;4973699;28;20208;-67
2024/03/27 07:54:28;;;;;;;11.77;7.47;;;12.60;99.90;;;;;;4976415;28;20603;-67
2024/03/27 07:57:05;;;;;;;8.03;7.23;;;12.80;99.90;;;;;;4972695;28;20196;-66
2024/03/27 07:59:31;;;;;;;7.80;6.73;;;13.20;99.90;;;;;;4975184;28;20248;-67
2024/03/27 08:01:56;;;;;;;10.20;6.63;;;13.60;99.90;;;;;;4986016;28;20501;-66
2024/03/27 08:04:22;;;;;;;7.27;6.30;;;14.20;99.90;;;;;;4976141;28;20172;-66
2024/03/27 08:06:48;;;;;;;10.70;6.53;;;14.70;99.90;;;;;;4989510;28;20226;-66
2024/03/27 08:09:13;;;;;;;9.00;6.00;;;14.90;99.90;;;;;;4988329;28;20179;-67
2024/03/27 08:11:39;;;;;;;6.87;6.20;;;15.10;99.90;;;;;;4983517;28;20218;-67
2024/03/27 08:14:05;;;;;;;7.80;6.20;;;15.10;99.90;;;;;;4973479;28;20187;-66
2024/03/27 08:16:30;;;;;;;7.07;6.33;;;15.10;99.90;;;;;;4972425;28;20200;-67
2024/03/27 08:18:56;;;;;;;5.87;5.17;;;15.00;99.90;;;;;;4973894;28;20942;-67
2024/03/27 08:21:21;;;;;;;6.40;5.77;;;15.10;99.90;;;;;;4982747;28;20733;-67
2024/03/27 08:23:48;;;;;;;7.07;6.33;;;15.50;99.90;;;;;;4984140;28;20230;-66
2024/03/27 08:26:13;;;;;;;5.60;5.10;;;16.00;99.90;;;;;;4987118;28;20206;-67
2024/03/27 08:28:40;;;;;;;6.13;5.23;;;16.10;99.90;;;;;;4968340;28;20989;-67
2024/03/27 08:31:06;;;;;;;6.90;6.30;;;16.40;99.90;;;;;;4974114;28;20235;-67
2024/03/27 08:33:31;;;;;;;8.67;5.60;;;16.90;99.90;;;;;;4968102;28;20458;-67
2024/03/27 08:35:57;;;;;;;8.80;6.03;;;16.90;99.90;;;;;;4969349;28;20196;-66
2024/03/27 08:38:23;;;;;;;9.63;6.67;;;17.50;99.90;;;;;;4980554;28;20168;-66
2024/03/27 08:40:52;;;;;;;8.57;6.53;;;17.50;99.90;;;;;;4977067;28;20183;-67
2024/03/27 08:43:18;;;;;;;7.63;5.50;;;17.80;98.70;;;;;;4971216;28;20176;-67
2024/03/27 08:45:44;;;;;;;8.40;6.57;;;17.70;97.80;;;;;;4972561;28;20451;-68
2024/03/27 08:48:09;;;;;;;12.00;6.07;;;17.80;97.40;;;;;;4972546;28;20431;-67
2024/03/27 08:50:35;;;;;;;10.23;7.40;;;18.10;96.80;;;;;;4973311;28;20644;-66
2024/03/27 08:53:01;;;;;;;10.17;8.00;;;18.30;95.20;;;;;;4973426;28;20183;-67
2024/03/27 08:55:27;;;;;;;6.90;6.20;;;18.30;94.40;;;;;;4973416;28;20199;-68
2024/03/27 08:57:52;;;;;;;7.03;6.30;;;18.60;93.60;;;;;;4972138;28;20939;-66
2024/03/27 09:00:18;;;;;;;6.47;5.93;;;18.50;93.00;;;;;;4977482;28;20178;-67
2024/03/27 09:02:48;;;;;;;11.27;7.23;;;18.90;91.70;;;;;;4973104;28;20187;-67
2024/03/27 09:05:16;;;;;;;7.50;6.80;;;19.20;90.60;;;;;;4971877;28;20206;-67
2024/03/27 09:07:42;;;;;;;13.03;7.17;;;19.60;88.70;;;;;;4972346;28;20448;-68
2024/03/27 09:10:09;;;;;;;10.00;6.67;;;20.20;85.60;;;;;;4968615;28;20812;-67
2024/03/27 09:12:34;;;;;;;7.70;6.50;;;20.40;83.60;;;;;;4953616;29;20209;-67
2024/03/27 09:14:59;;;;;;;11.43;6.90;;;20.20;82.20;;;;;;4977666;28;20904;-67
2024/03/27 09:17:26;;;;;;;10.87;6.43;;;20.40;80.70;;;;;;4972043;28;20187;-68
2024/03/27 09:19:51;;;;;;;7.27;6.53;;;21.00;78.30;;;;;;4970639;28;20179;-68
2024/03/27 09:22:17;;;;;;;7.30;6.73;;;21.40;75.10;;;;;;4972950;28;20804;-68
2024/03/27 09:24:42;;;;;;;6.67;5.30;;;20.90;74.80;;;;;;4972898;28;20181;-67
2024/03/27 09:27:08;;;;;;;7.30;6.60;;;20.30;79.10;;;;;;4972088;28;20200;-68
2024/03/27 09:29:33;;;;;;;8.93;6.67;;;20.20;79.70;;;;;;4973179;28;20188;-67
2024/03/27 09:31:59;;;;;;;5.93;5.43;;;20.70;78.90;;;;;;4964760;28;20211;-68
2024/03/27 09:34:24;;;;;;;10.40;8.10;;;21.90;73.80;;;;;;4967694;28;20179;-66
2024/03/27 09:36:50;;;;;;;9.07;6.30;;;22.10;70.60;;;;;;4971589;28;20188;-65
2024/03/27 09:39:15;;;;;;;6.90;6.27;;;21.60;69.10;;;;;;4972157;28;20246;-65
2024/03/27 09:41:41;;;;;;;8.40;7.60;;;20.70;72.50;;;;;;4971556;28;20200;-65
2024/03/27 09:44:07;;;;;;;7.07;6.43;;;20.60;71.20;;;;;;4971382;28;20669;-66
2024/03/27 09:46:38;;;;;;;7.10;5.93;;;20.00;73.90;;;;;;4959218;28;20208;-65
2024/03/27 09:49:05;;;;;;;7.33;6.77;;;20.50;73.50;;;;;;4972664;28;20782;-65
2024/03/27 09:51:33;;;;;;;10.53;6.50;;;20.50;73.60;;;;;;4972081;28;20589;-68
2024/03/27 09:54:05;;;;;;;8.73;6.30;;;20.50;73.50;;;;;;4968838;28;20838;-68
2024/03/27 09:56:31;;;;;;;8.37;7.57;;;21.20;73.10;;;;;;4977630;28;20481;-68
2024/03/27 09:58:57;;;;;;;8.90;6.80;;;22.40;68.50;;;;;;4969523;28;21039;-65
2024/03/27 10:01:23;;;;;;;7.27;6.57;;;22.70;65.90;;;;;;4970843;28;20519;-65
2024/03/27 10:03:48;;;;;;;6.87;6.27;;;22.30;65.50;;;;;;4983904;28;20562;-65
2024/03/27 10:06:14;;;;;;;6.80;6.10;;;22.60;66.40;;;;;;4976898;28;20218;-66
2024/03/27 10:08:40;;;;;;;12.40;6.20;;;23.30;64.00;;;;;;4969168;28;20181;-66
2024/03/27 10:11:05;;;;;;;6.97;5.63;;;23.20;61.80;;;;;;4976101;28;20212;-66
2024/03/27 10:13:31;;;;;;;8.77;6.23;;;23.40;61.00;;;;;;4973085;28;20203;-66
2024/03/27 10:15:56;;;;;;;7.87;6.70;;;22.90;60.80;;;;;;4969466;28;20442;-67
2024/03/27 10:18:24;;;;;;;8.60;7.80;;;23.40;60.50;;;;;;4967709;28;20301;-66
2024/03/27 10:20:50;;;;;;;8.10;5.90;;;24.00;58.30;;;;;;4978762;28;20179;-67
2024/03/27 10:23:16;;;;;;;5.93;5.20;;;25.60;54.70;;;;;;4978457;28;20490;-66
2024/03/27 10:25:42;;;;;;;6.57;5.93;;;25.40;53.60;;;;;;4976782;28;20250;-67
2024/03/27 10:28:08;;;;;;;9.07;6.57;;;25.00;53.30;;;;;;4968823;28;20523;-66
2024/03/27 10:30:34;;;;;;;6.40;5.90;;;24.10;54.50;;;;;;4969575;28;20472;-66
2024/03/27 10:33:00;;;;;;;5.70;5.30;;;23.00;55.30;;;;;;4975349;28;20494;-66
2024/03/27 10:35:45;;;;;;;5.57;5.17;;;22.20;57.80;;;;;;4980960;28;20196;-66
2024/03/27 10:38:10;;;;;;;8.20;6.37;;;21.50;61.20;;;;;;4974571;28;20211;-66
2024/03/27 10:40:38;;;;;;;7.90;7.20;;;20.50;63.50;;;;;;4978157;28;20877;-66
2024/03/27 10:43:17;;;;;;;9.10;6.80;;;20.20;65.10;;;;;;4987101;28;20180;-66
2024/03/27 10:45:44;;;;;;;8.17;6.60;;;20.20;66.30;;;;;;4969201;28;20462;-66
2024/03/27 10:48:10;;;;;;;7.70;7.00;;;20.50;66.30;;;;;;4978959;28;20478;-66
2024/03/27 10:50:37;;;;;;;6.93;6.40;;;20.10;67.50;;;;;;4971926;28;20439;-67
2024/03/27 10:53:04;;;;;;;7.57;6.87;;;19.70;69.30;;;;;;4977696;28;20553;-67
2024/03/27 10:55:29;;;;;;;7.93;7.23;;;18.90;73.50;;;;;;4982376;28;20450;-68
2024/03/27 10:57:56;;;;;;;7.43;6.40;;;19.30;73.80;;;;;;4968694;28;20801;-68
2024/03/27 11:00:22;;;;;;;7.43;6.77;;;20.80;69.60;;;;;;4980412;28;20169;-67
2024/03/27 11:02:51;;;;;;;6.63;6.13;;;21.50;66.10;;;;;;4975994;28;20431;-70
2024/03/27 11:05:18;;;;;;;6.03;5.53;;;22.90;63.30;;;;;;4976400;28;20879;-71
2024/03/27 11:07:45;;;;;;;6.90;6.30;;;24.40;58.00;;;;;;4973583;28;20475;-69
2024/03/27 11:10:22;;;;;;;6.63;6.13;;;23.70;57.20;;;;;;4974211;28;20434;-70
2024/03/27 11:12:48;;;;;;;6.67;6.17;;;23.60;57.90;;;;;;4977362;28;20506;-67
2024/03/27 11:15:15;;;;;;;6.47;6.07;;;23.60;58.80;;;;;;4981724;28;20454;-67
2024/03/27 11:17:49;;;;;;;5.53;5.13;;;23.50;57.30;;;;;;4984497;28;20532;-68
2024/03/27 11:20:15;;;;;;;6.50;5.97;;;22.00;60.00;;;;;;4988497;28;20422;-67
2024/03/27 11:22:46;;;;;;;8.03;7.43;;;20.80;64.40;;;;;;4963547;28;20487;-68
2024/03/27 11:25:12;;;;;;;6.67;6.13;;;19.30;70.00;;;;;;4974210;28;20515;-65
2024/03/27 11:27:38;;;;;;;6.87;6.37;;;19.00;74.40;;;;;;4971998;28;20491;-67
2024/03/27 11:30:04;;;;;;;6.63;6.13;;;19.00;75.90;;;;;;4975969;28;20488;-64
2024/03/27 11:32:37;;;;;;;8.07;7.40;;;18.80;76.70;;;;;;4969634;28;20204;-64
2024/03/27 11:35:03;;;;;;;6.83;6.23;;;18.10;79.00;;;;;;4986870;28;20423;-66
2024/03/27 11:37:29;;;;;;;6.80;6.13;;;17.50;84.00;;;;;;4981989;28;20430;-66
2024/03/27 11:39:54;;;;;;;7.37;6.33;;;16.90;88.70;;;;;;4975478;28;20424;-67
2024/03/27 11:42:20;;;;;;;7.63;6.93;;;16.60;91.70;;;;;;4976471;28;20955;-67
2024/03/27 11:44:46;;;;;;;7.07;6.47;;;16.40;94.00;;;;;;4974605;28;20692;-67
2024/03/27 11:47:16;;;;;;;9.37;6.60;;;15.80;97.30;;;;;;4979765;28;20203;-67
2024/03/27 11:49:43;;;;;;;5.93;5.43;;;15.50;99.90;;;;;;4983022;28;20492;-69
2024/03/27 11:52:08;;;;;;;6.10;5.60;;;15.40;99.90;;;;;;4973536;28;20987;-67
2024/03/27 11:54:34;;;;;;;6.17;5.67;;;15.20;99.90;;;;;;4977706;28;20438;-67
2024/03/27 11:56:59;;;;;;;5.80;5.30;;;15.00;99.90;;;;;;4978370;28;20448;-67
2024/03/27 11:59:25;;;;;;;5.63;5.17;;;14.80;99.90;;;;;;4978656;28;20184;-68
2024/03/27 12:01:50;;;;;;;5.20;4.70;;;14.90;99.90;;;;;;4974793;28;20194;-67
2024/03/27 12:04:16;;;;;;;4.97;4.50;;;15.30;99.90;;;;;;4975348;28;20234;-67
2024/03/27 12:06:43;;;;;;;4.30;4.00;;;15.30;99.90;;;;;;4973676;23;20715;-65
2024/03/27 12:09:15;;;;;;;4.07;3.53;;;15.60;99.90;;;;;;4959017;28;20212;-65
2024/03/27 12:11:41;;;;;;;4.33;3.90;;;16.10;99.20;;;;;;4970707;28;20470;-66
2024/03/27 12:14:13;;;;;;;3.07;2.87;;;16.50;98.00;;;;;;4963682;28;20446;-65
2024/03/27 12:16:39;;;;;;;3.00;2.70;;;16.70;97.20;;;;;;4958030;28;20563;-65
2024/03/27 12:19:05;;;;;;;2.60;1.80;;;17.10;95.90;;;;;;4960387;28;20436;-65
2024/03/27 12:21:30;;;;;;;2.03;1.93;;;16.30;94.80;;;;;;4967145;28;20189;-65
2024/03/27 12:23:56;;;;;;;2.10;1.90;;;15.70;96.60;;;;;;4961646;28;20448;-65
2024/03/27 12:26:21;;;;;;;2.43;2.23;;;15.60;97.60;;;;;;4958057;28;20678;-66
2024/03/27 12:28:50;;;;;;;1.97;1.87;;;15.50;98.30;;;;;;4956399;28;20181;-66
2024/03/27 12:31:24;;;;;;;1.93;1.77;;;15.80;97.80;;;;;;4963799;28;20243;-66
2024/03/27 12:33:50;;;;;;;2.20;2.10;;;16.40;95.20;;;;;;4967695;28;20463;-66
2024/03/27 12:36:16;;;;;;;2.20;1.83;;;16.90;93.90;;;;;;4968027;28;20486;-65
2024/03/27 12:38:42;;;;;;;2.90;2.03;;;16.90;92.30;;;;;;4958518;28;20512;-65
2024/03/27 12:41:08;;;;;;;2.50;1.93;;;16.90;92.20;;;;;;4958323;28;20444;-65
2024/03/27 12:43:33;;;;;;;2.23;2.10;;;16.80;91.80;;;;;;4956942;28;20436;-65